Tumeremo, Venezuela
Current Conditions -  °F | °C
As of 2:00 AM on Sunday 23 Nov 2014 (Local Time) from SYCJ Reporting Station
Scattered Clouds Scattered Clouds  
Wind Chill: 77°   Ceiling: Unl
Heat Index: 78°   Visibility: 6mi
Dew Point: 75°   Wind: 5mph
Humidity: 94%   Direction: 40°NE
Pressure: 29.83"   Gusts: NA
Location:  7.29°N, 61.48°W
Report Text: SYCJ 230600Z 04004KT 9999 SCT012 25/24 Q1010 NOSIG
Loading
Personal Weather Stations






























Interactive Weather Map New forecast layout! Learn more

10-Day Weather Forecast

Advertisements
Track Severe Weather on mobile